Time;durP1;ratioP1;P1;durP2;ratioP2;P2;SDS_P1;SDS_P2;PMS_P1;PMS_P2;Temp;Humidity;BMP_temperature;BMP_pressure;BME280_temperature;BME280_humidity;BME280_pressure;Samples;Min_cycle;Max_cycle;Signal;HPM_P1;HPM_P2
2022/06/14 00:03:46;;;;;;;2.72;0.85;;;24.60;36.00;;;;;;6197501;28;20064;-70
2022/06/14 00:06:47;;;;;;;1.73;1.00;;;24.50;36.30;;;;;;6178588;28;20033;-70
2022/06/14 00:09:48;;;;;;;4.63;1.35;;;24.40;36.60;;;;;;6203484;28;20050;-70
2022/06/14 00:12:49;;;;;;;3.05;0.90;;;24.30;36.80;;;;;;6200645;28;20030;-71
2022/06/14 00:15:50;;;;;;;1.48;0.93;;;24.20;36.90;;;;;;6198581;28;20046;-71
2022/06/14 00:18:51;;;;;;;1.80;1.00;;;24.20;37.30;;;;;;6187392;28;20034;-70
2022/06/14 00:21:51;;;;;;;7.25;1.15;;;24.10;37.40;;;;;;6190722;28;20041;-70
2022/06/14 00:24:55;;;;;;;4.38;0.95;;;24.00;37.40;;;;;;6195668;28;20023;-70
2022/06/14 00:27:56;;;;;;;2.22;0.93;;;24.00;37.60;;;;;;6202533;28;20114;-70
2022/06/14 00:31:01;;;;;;;2.08;1.13;;;24.00;37.60;;;;;;6200533;28;20032;-70
2022/06/14 00:34:01;;;;;;;1.65;0.95;;;24.00;37.60;;;;;;6203764;28;20026;-70
2022/06/14 00:37:03;;;;;;;3.10;0.95;;;24.00;37.70;;;;;;6182677;28;20093;-71
2022/06/14 00:40:05;;;;;;;3.35;0.95;;;23.90;37.80;;;;;;6198240;28;20352;-69
2022/06/14 00:43:15;;;;;;;2.67;0.82;;;23.90;38.00;;;;;;6188128;28;20022;-70
2022/06/14 00:46:20;;;;;;;0.98;0.82;;;23.90;38.10;;;;;;6194292;28;20467;-70
2022/06/14 00:49:28;;;;;;;2.53;0.93;;;23.80;38.10;;;;;;6178692;28;20022;-69
2022/06/14 00:52:50;;;;;;;2.70;1.00;;;23.80;38.30;;;;;;6183191;28;20092;-70
2022/06/14 00:56:07;;;;;;;2.92;1.23;;;23.80;38.40;;;;;;6199040;28;20057;-69
2022/06/14 00:59:15;;;;;;;3.15;1.08;;;23.80;39.20;;;;;;6179882;28;20513;-69
2022/06/14 01:02:24;;;;;;;2.67;0.85;;;23.80;38.60;;;;;;6184442;28;20037;-70
2022/06/14 01:06:05;;;;;;;4.50;1.38;;;23.80;38.60;;;;;;6187681;28;20030;-69
2022/06/14 01:09:00;;;;;;;1.85;0.93;;;23.90;38.70;;;;;;6222217;28;20080;-69
2022/06/14 01:12:10;;;;;;;8.88;1.17;;;23.90;38.70;;;;;;6223490;28;20069;-69
2022/06/14 01:15:20;;;;;;;3.47;1.20;;;23.90;38.70;;;;;;6202283;28;20129;-69
2022/06/14 01:18:25;;;;;;;2.75;0.85;;;23.90;38.80;;;;;;6193386;28;20065;-69
2022/06/14 01:21:28;;;;;;;1.10;0.82;;;23.90;38.90;;;;;;6213202;28;20036;-70
2022/06/14 01:24:30;;;;;;;2.70;1.23;;;23.90;38.90;;;;;;6186313;28;20045;-69
2022/06/14 01:27:37;;;;;;;2.65;1.33;;;23.90;38.90;;;;;;6185997;28;20347;-69
2022/06/14 01:30:46;;;;;;;1.58;0.85;;;23.90;38.80;;;;;;6212595;28;20030;-69
2022/06/14 01:33:51;;;;;;;1.50;1.00;;;23.80;38.70;;;;;;6203385;28;20508;-69
2022/06/14 01:36:52;;;;;;;2.67;1.13;;;23.80;38.70;;;;;;6185736;28;20018;-70
2022/06/14 01:39:55;;;;;;;5.05;1.23;;;23.80;38.70;;;;;;6185859;28;20121;-70
2022/06/14 01:43:52;;;;;;;1.52;0.98;;;23.70;38.70;;;;;;6185287;28;20548;-70
2022/06/14 01:47:05;;;;;;;3.42;0.80;;;23.70;38.80;;;;;;6135319;29;20035;-70
2022/06/14 01:53:50;;;;;;;2.97;1.15;;;23.70;39.00;;;;;;6148225;29;20047;-70
2022/06/14 01:57:05;;;;;;;3.25;1.35;;;23.70;39.20;;;;;;6151560;29;20035;-70
2022/06/14 02:00:13;;;;;;;2.65;1.08;;;23.70;39.40;;;;;;6146964;29;20051;-70
2022/06/14 02:07:07;;;;;;;8.25;1.17;;;23.60;39.90;;;;;;6145491;29;20078;-69
2022/06/14 02:10:08;;;;;;;5.50;1.13;;;23.50;40.30;;;;;;6151032;29;20045;-69
2022/06/14 02:13:17;;;;;;;3.25;1.08;;;23.40;40.50;;;;;;6119354;29;20047;-70
2022/06/14 02:16:46;;;;;;;2.75;1.05;;;23.40;40.80;;;;;;6145193;29;20461;-70
2022/06/14 02:19:59;;;;;;;1.58;0.90;;;23.30;41.10;;;;;;6163498;28;20034;-70
2022/06/14 02:23:08;;;;;;;2.53;0.90;;;23.20;41.30;;;;;;6183968;28;20042;-69
2022/06/14 02:26:22;;;;;;;1.27;0.98;;;23.20;41.50;;;;;;6201274;28;20162;-70
2022/06/14 02:29:31;;;;;;;5.97;0.90;;;23.10;41.60;;;;;;6195480;28;20022;-70
2022/06/14 02:32:42;;;;;;;1.58;1.10;;;23.10;41.70;;;;;;6202145;28;20014;-69
2022/06/14 02:35:57;;;;;;;5.10;0.90;;;23.10;41.80;;;;;;6201568;28;20044;-70
2022/06/14 02:39:16;;;;;;;2.08;0.98;;;23.00;41.80;;;;;;6212805;28;20042;-70
2022/06/14 02:42:34;;;;;;;3.60;0.90;;;23.00;41.90;;;;;;6225105;28;20106;-70
2022/06/14 02:45:38;;;;;;;;;;;23.00;42.10;;;;;;6209112;28;20104;-69
2022/06/14 02:48:46;;;;;;;6.28;1.13;;;23.10;42.20;;;;;;6184198;28;20366;-69
2022/06/14 02:51:55;;;;;;;4.03;1.23;;;23.10;42.00;;;;;;6184212;28;20033;-69
2022/06/14 02:55:07;;;;;;;9.85;1.52;;;23.10;42.10;;;;;;6184060;28;20030;-70
2022/06/14 02:58:15;;;;;;;2.33;1.27;;;23.10;42.20;;;;;;6194614;28;20034;-70
2022/06/14 03:01:25;;;;;;;3.92;1.20;;;23.10;42.20;;;;;;6183839;28;20030;-69
2022/06/14 03:04:36;;;;;;;3.70;0.90;;;23.00;42.30;;;;;;6184110;28;20098;-70
2022/06/14 03:07:53;;;;;;;4.40;1.25;;;23.00;42.60;;;;;;6200688;28;20038;-70
2022/06/14 03:11:28;;;;;;;5.20;1.20;;;23.00;42.70;;;;;;6167720;28;20045;-69
2022/06/14 03:14:51;;;;;;;6.22;1.42;;;22.90;42.90;;;;;;6152216;28;20046;-69
2022/06/14 03:17:52;;;;;;;3.40;1.08;;;22.90;43.20;;;;;;6183927;28;20030;-69
2022/06/14 03:21:08;;;;;;;2.20;1.15;;;22.90;43.40;;;;;;6183103;28;20085;-70
2022/06/14 03:24:32;;;;;;;1.20;1.08;;;22.80;43.60;;;;;;6201762;28;20030;-69
2022/06/14 03:27:36;;;;;;;6.97;1.45;;;22.80;43.60;;;;;;6167647;28;20030;-69
2022/06/14 03:30:45;;;;;;;3.10;1.25;;;22.80;43.60;;;;;;6183838;28;20058;-69
2022/06/14 03:33:54;;;;;;;5.93;1.50;;;22.70;43.80;;;;;;6200501;28;20096;-69
2022/06/14 03:36:56;;;;;;;7.40;1.85;;;22.70;43.90;;;;;;6182286;28;20038;-70
2022/06/14 03:40:04;;;;;;;3.65;1.30;;;22.70;44.00;;;;;;6182982;28;20093;-69
2022/06/14 03:43:05;;;;;;;;;;;22.60;44.00;;;;;;6202276;28;20054;-69
2022/06/14 03:46:21;;;;;;;4.25;1.25;;;22.60;44.00;;;;;;6183415;28;20319;-69
2022/06/14 03:49:25;;;;;;;5.85;1.98;;;22.60;44.10;;;;;;6182632;28;20026;-71
2022/06/14 03:52:45;;;;;;;2.85;1.52;;;22.60;44.40;;;;;;6182778;28;20098;-69
2022/06/14 03:55:56;;;;;;;4.50;1.50;;;22.50;44.50;;;;;;6180198;28;20054;-70
2022/06/14 03:59:03;;;;;;;1.98;1.25;;;22.50;44.80;;;;;;6181247;28;20507;-69
2022/06/14 04:02:55;;;;;;;3.30;1.38;;;22.40;44.80;;;;;;6208561;28;20347;-70
2022/06/14 04:06:17;;;;;;;1.88;1.25;;;22.40;45.20;;;;;;6131957;28;20461;-70
2022/06/14 04:09:31;;;;;;;5.70;1.40;;;22.30;45.20;;;;;;6149398;28;20035;-70
2022/06/14 04:12:32;;;;;;;6.05;1.67;;;22.30;45.40;;;;;;6149738;28;20035;-70
2022/06/14 04:15:45;;;;;;;6.40;2.22;;;22.30;45.40;;;;;;6148412;28;20803;-70
2022/06/14 04:19:29;;;;;;;4.82;1.75;;;22.30;45.50;;;;;;6149778;28;20035;-70
2022/06/14 04:23:02;;;;;;;4.18;1.75;;;22.20;45.60;;;;;;6084730;29;20051;-70
2022/06/14 04:26:27;;;;;;;7.70;1.90;;;22.20;45.70;;;;;;6097561;29;20032;-70
2022/06/14 04:29:40;;;;;;;4.70;1.70;;;22.20;45.70;;;;;;6080148;29;20040;-70
2022/06/14 04:33:05;;;;;;;5.00;1.52;;;22.20;45.80;;;;;;6053844;29;20444;-70
2022/06/14 04:36:11;;;;;;;5.30;1.65;;;22.20;45.90;;;;;;6099498;29;20040;-70
2022/06/14 04:39:18;;;;;;;5.88;1.50;;;22.20;46.00;;;;;;6084936;29;20047;-70
2022/06/14 04:42:40;;;;;;;6.53;1.83;;;22.20;46.00;;;;;;6078574;29;20040;-70
2022/06/14 04:45:48;;;;;;;6.13;2.22;;;22.20;46.00;;;;;;6109073;29;20335;-70
2022/06/14 04:49:22;;;;;;;6.25;2.38;;;22.20;46.00;;;;;;6128001;29;20036;-70
2022/06/14 04:52:32;;;;;;;9.05;2.00;;;22.20;46.10;;;;;;6035147;29;20042;-70
2022/06/14 04:55:43;;;;;;;5.28;1.77;;;22.30;46.00;;;;;;6035522;29;20037;-70
2022/06/14 04:58:53;;;;;;;3.65;1.60;;;22.30;46.00;;;;;;6052363;29;20068;-69
2022/06/14 05:02:00;;;;;;;5.28;1.42;;;22.30;46.00;;;;;;6079081;29;20425;-69
2022/06/14 05:05:22;;;;;;;4.10;1.70;;;22.40;45.90;;;;;;6051790;29;20378;-71
2022/06/14 05:12:47;;;;;;;3.63;1.73;;;22.50;45.80;;;;;;6089026;29;20370;-70
2022/06/14 05:15:53;;;;;;;4.97;1.60;;;22.50;45.60;;;;;;6080510;29;20386;-70
2022/06/14 05:19:09;;;;;;;4.78;1.70;;;22.60;45.70;;;;;;6051599;29;20031;-70
2022/06/14 05:22:36;;;;;;;3.72;1.70;;;22.60;45.60;;;;;;6077267;29;20079;-70
2022/06/14 05:25:57;;;;;;;4.18;1.50;;;22.60;45.70;;;;;;6082118;29;20031;-69
2022/06/14 05:29:15;;;;;;;4.70;1.55;;;22.60;45.60;;;;;;6048081;29;20043;-69
2022/06/14 05:32:31;;;;;;;5.80;1.75;;;22.60;45.70;;;;;;6081701;29;20036;-69
2022/06/14 05:35:48;;;;;;;4.55;1.55;;;22.70;45.80;;;;;;6087056;29;20331;-70
2022/06/14 05:38:55;;;;;;;4.38;1.85;;;22.70;45.80;;;;;;6104711;29;20115;-70
2022/06/14 05:42:04;;;;;;;4.55;1.45;;;22.70;45.60;;;;;;6104214;29;20032;-70
2022/06/14 05:45:06;;;;;;;4.57;1.98;;;22.80;45.50;;;;;;6088319;29;20024;-70
2022/06/14 05:48:11;;;;;;;6.57;1.70;;;22.80;45.40;;;;;;6088482;29;20024;-71
2022/06/14 05:51:15;;;;;;;6.35;1.30;;;22.80;45.50;;;;;;6103163;29;20039;-70
2022/06/14 05:54:25;;;;;;;9.80;1.95;;;22.90;45.50;;;;;;6083204;29;20431;-70
2022/06/14 05:57:31;;;;;;;5.65;1.83;;;23.00;45.60;;;;;;6097233;29;20583;-69
2022/06/14 06:00:49;;;;;;;3.58;1.92;;;23.00;45.50;;;;;;6048430;29;20123;-69
2022/06/14 06:04:46;;;;;;;6.70;2.35;;;23.00;45.30;;;;;;6081395;29;20127;-69
2022/06/14 06:07:59;;;;;;;4.90;2.10;;;23.10;45.30;;;;;;6127187;29;20050;-70
2022/06/14 06:11:24;;;;;;;7.25;1.90;;;23.20;45.00;;;;;;6095301;29;20047;-70
2022/06/14 06:15:00;;;;;;;3.70;1.33;;;23.20;44.80;;;;;;6101379;29;20044;-70
2022/06/14 06:18:08;;;;;;;2.67;1.50;;;23.30;44.80;;;;;;6126824;29;20043;-70
2022/06/14 06:21:32;;;;;;;4.13;1.58;;;23.40;44.80;;;;;;6127366;29;20051;-70
2022/06/14 06:24:43;;;;;;;15.43;2.00;;;23.40;44.70;;;;;;6087957;29;20110;-69
2022/06/14 06:27:56;;;;;;;4.88;1.58;;;23.60;44.50;;;;;;6108465;29;20395;-70
2022/06/14 06:31:15;;;;;;;4.68;1.38;;;23.60;44.40;;;;;;6125155;29;20469;-69
2022/06/14 06:34:17;;;;;;;9.32;1.60;;;23.70;44.20;;;;;;6094948;29;20036;-69
2022/06/14 06:37:37;;;;;;;3.45;1.65;;;23.90;44.10;;;;;;6125017;29;20050;-70
2022/06/14 06:41:49;;;;;;;4.00;1.55;;;24.00;43.80;;;;;;6123301;29;20047;-70
2022/06/14 06:44:16;;;;;;;5.28;1.58;;;24.10;43.40;;;;;;6183569;28;20077;-70
2022/06/14 06:47:26;;;;;;;5.45;1.45;;;24.30;43.10;;;;;;6207103;28;20080;-70
2022/06/14 06:50:51;;;;;;;3.22;1.38;;;24.40;42.80;;;;;;6206132;28;20033;-68
2022/06/14 06:54:05;;;;;;;4.82;1.48;;;24.50;42.50;;;;;;6223947;28;20059;-69
2022/06/14 06:57:10;;;;;;;6.28;1.80;;;24.60;42.20;;;;;;6213987;28;20030;-69
2022/06/14 07:00:46;;;;;;;6.47;2.00;;;24.70;41.90;;;;;;6192696;28;20061;-69
2022/06/14 07:03:59;;;;;;;4.28;1.77;;;24.90;41.50;;;;;;6214403;28;20029;-69
2022/06/14 07:07:01;;;;;;;2.28;1.40;;;25.00;41.10;;;;;;6206291;28;20088;-70
2022/06/14 07:10:18;;;;;;;2.67;1.60;;;25.20;40.80;;;;;;6205171;28;20026;-69
2022/06/14 07:13:29;;;;;;;6.13;1.90;;;25.40;40.50;;;;;;6206194;28;20034;-70
2022/06/14 07:16:35;;;;;;;3.72;1.58;;;25.80;39.70;;;;;;6209412;28;20027;-69
2022/06/14 07:19:36;;;;;;;5.70;1.40;;;26.20;39.30;;;;;;6167288;28;20022;-69
2022/06/14 07:22:43;;;;;;;4.68;1.65;;;26.20;38.80;;;;;;6206119;28;20104;-69
2022/06/14 07:25:58;;;;;;;2.53;1.23;;;26.20;39.00;;;;;;6190643;28;20118;-69
2022/06/14 07:29:11;;;;;;;4.32;1.80;;;26.20;38.70;;;;;;6182540;28;20026;-70
2022/06/14 07:32:42;;;;;;;3.05;1.33;;;26.10;38.30;;;;;;6183110;28;20037;-69
2022/06/14 07:35:57;;;;;;;3.08;1.40;;;26.10;38.20;;;;;;6132603;29;20062;-71
2022/06/14 07:39:02;;;;;;;10.38;1.95;;;26.10;37.80;;;;;;6128433;29;20453;-69
2022/06/14 07:42:19;;;;;;;2.65;1.60;;;26.10;37.70;;;;;;6127864;29;20071;-69
2022/06/14 07:45:37;;;;;;;3.47;1.63;;;26.10;37.60;;;;;;6120603;29;20119;-69
2022/06/14 07:48:53;;;;;;;4.60;1.80;;;26.30;37.60;;;;;;6109814;29;20943;-70
2022/06/14 07:52:19;;;;;;;3.05;1.33;;;26.40;37.20;;;;;;6109411;29;20382;-70
2022/06/14 07:55:22;;;;;;;2.90;1.40;;;26.60;36.90;;;;;;6109701;29;20381;-69
2022/06/14 07:58:30;;;;;;;4.55;1.38;;;26.80;36.60;;;;;;6119550;29;20036;-70
2022/06/14 08:01:47;;;;;;;7.03;1.52;;;26.90;36.40;;;;;;6111207;29;20023;-70
2022/06/14 08:04:54;;;;;;;6.43;1.92;;;27.00;36.50;;;;;;6108942;29;20063;-70
2022/06/14 08:07:59;;;;;;;5.03;2.00;;;27.10;36.80;;;;;;6108945;29;20079;-70
2022/06/14 08:11:06;;;;;;;3.88;1.90;;;27.10;36.80;;;;;;6134771;28;20118;-70
2022/06/14 08:14:15;;;;;;;3.53;1.85;;;27.20;36.80;;;;;;6198921;28;20046;-70
2022/06/14 08:17:25;;;;;;;5.65;2.22;;;27.40;36.70;;;;;;6165782;28;20052;-71
2022/06/14 08:21:21;;;;;;;9.18;1.80;;;27.50;36.70;;;;;;6181637;28;20054;-71
2022/06/14 08:24:29;;;;;;;8.25;2.45;;;27.70;36.40;;;;;;6152584;29;20091;-71
2022/06/14 08:27:38;;;;;;;3.60;2.00;;;27.80;35.80;;;;;;6136805;29;20047;-70
2022/06/14 08:30:49;;;;;;;7.32;1.77;;;28.00;35.70;;;;;;6137255;29;20453;-70
2022/06/14 08:34:17;;;;;;;4.75;1.85;;;28.20;35.40;;;;;;6137053;29;20441;-70
2022/06/14 08:37:35;;;;;;;2.85;1.48;;;28.30;35.30;;;;;;6152829;29;20071;-70
2022/06/14 08:41:14;;;;;;;7.55;1.50;;;28.40;34.90;;;;;;6152547;29;20039;-70
2022/06/14 08:44:27;;;;;;;;;;;28.50;34.70;;;;;;6138287;29;20380;-70
2022/06/14 08:47:57;;;;;;;3.53;1.35;;;28.60;34.30;;;;;;6134960;29;19930;-70
2022/06/14 08:51:12;;;;;;;4.13;1.55;;;28.70;34.00;;;;;;6135867;29;20287;-70
2022/06/14 08:54:34;;;;;;;4.82;1.77;;;28.80;33.70;;;;;;6135835;29;20134;-70
2022/06/14 08:57:43;;;;;;;5.13;1.42;;;28.80;33.30;;;;;;6148344;29;20031;-70
2022/06/14 09:00:56;;;;;;;5.18;2.67;;;28.90;33.00;;;;;;6184462;28;20038;-70
2022/06/14 09:04:32;;;;;;;2.92;1.65;;;28.90;32.90;;;;;;6202197;28;20026;-70
2022/06/14 09:07:50;;;;;;;7.07;1.88;;;29.00;32.70;;;;;;6202684;28;20030;-70
2022/06/14 09:11:30;;;;;;;7.45;1.90;;;29.00;32.50;;;;;;6203432;28;20049;-70
2022/06/14 09:15:03;;;;;;;;;;;29.10;32.60;;;;;;6185748;28;20053;-70
2022/06/14 09:18:14;;;;;;;7.30;3.38;;;29.20;32.60;;;;;;6086721;29;19922;-70
2022/06/14 09:21:36;;;;;;;9.18;1.65;;;29.20;32.50;;;;;;6104744;29;20055;-71
2022/06/14 09:24:46;;;;;;;11.73;1.70;;;29.10;32.60;;;;;;6104326;29;20024;-70
2022/06/14 09:28:04;;;;;;;11.95;3.65;;;29.20;32.60;;;;;;6089169;29;20140;-69
2022/06/14 09:31:35;;;;;;;15.30;2.92;;;29.30;32.60;;;;;;6104734;29;20036;-70
2022/06/14 09:34:55;;;;;;;9.18;4.07;;;29.50;32.70;;;;;;6088018;29;20072;-71
2022/06/14 09:38:16;;;;;;;7.57;2.97;;;29.50;32.50;;;;;;6088269;29;20054;-71
2022/06/14 09:41:42;;;;;;;7.03;1.55;;;29.60;32.80;;;;;;6103965;29;20533;-70
2022/06/14 09:45:01;;;;;;;15.68;2.78;;;29.70;32.70;;;;;;6104684;29;20028;-70
2022/06/14 09:48:20;;;;;;;13.10;6.45;;;29.70;32.60;;;;;;6092970;29;20048;-70
2022/06/14 09:51:54;;;;;;;4.93;2.15;;;29.80;32.70;;;;;;6112039;29;20035;-70
2022/06/14 09:55:17;;;;;;;7.72;2.25;;;29.80;32.60;;;;;;6198537;28;20030;-70
2022/06/14 09:58:29;;;;;;;10.30;2.47;;;29.90;32.50;;;;;;6198154;28;20467;-70
2022/06/14 10:01:41;;;;;;;5.45;2.22;;;29.90;32.50;;;;;;6194975;28;20475;-70
2022/06/14 10:05:00;;;;;;;7.38;1.85;;;29.90;32.40;;;;;;6182444;28;20384;-70
2022/06/14 10:08:37;;;;;;;5.65;1.50;;;29.90;32.50;;;;;;6197595;28;20371;-71
2022/06/14 10:12:22;;;;;;;6.65;2.42;;;29.90;32.40;;;;;;6129178;29;20180;-69
2022/06/14 10:15:33;;;;;;;5.43;3.10;;;30.00;32.50;;;;;;6056443;29;20044;-70
2022/06/14 10:19:07;;;;;;;5.05;2.30;;;30.00;32.50;;;;;;6026519;29;20041;-70
2022/06/14 10:22:16;;;;;;;3.13;1.92;;;30.10;32.40;;;;;;6052992;29;20044;-70
2022/06/14 10:25:26;;;;;;;3.25;1.70;;;30.20;32.30;;;;;;6053874;29;20112;-70
2022/06/14 10:28:53;;;;;;;4.80;2.03;;;30.20;32.30;;;;;;6055003;29;20029;-70
2022/06/14 10:32:24;;;;;;;5.03;3.47;;;30.20;32.40;;;;;;6053192;29;20036;-71
2022/06/14 10:35:34;;;;;;;5.00;1.90;;;30.40;32.30;;;;;;6052526;29;20037;-71
2022/06/14 10:38:40;;;;;;;2.75;1.85;;;30.50;32.10;;;;;;6056549;29;20041;-71
2022/06/14 10:41:52;;;;;;;3.35;1.80;;;30.60;32.00;;;;;;6042892;29;20065;-70
2022/06/14 10:45:20;;;;;;;4.47;1.77;;;30.80;32.00;;;;;;6064408;29;20031;-71
2022/06/14 10:48:50;;;;;;;6.28;1.80;;;31.00;31.90;;;;;;6163728;28;20325;-70
2022/06/14 10:52:25;;;;;;;2.72;1.95;;;31.10;31.70;;;;;;6204367;28;20041;-70
2022/06/14 10:56:07;;;;;;;2.70;1.52;;;31.30;31.50;;;;;;6198564;28;20018;-69
2022/06/14 10:59:21;;;;;;;7.32;1.98;;;31.40;31.30;;;;;;6158010;28;20472;-70
2022/06/14 11:02:57;;;;;;;7.03;1.70;;;31.50;31.00;;;;;;6158410;28;20153;-70
2022/06/14 11:06:17;;;;;;;3.75;1.70;;;31.60;30.80;;;;;;6146695;28;20033;-71
2022/06/14 11:09:33;;;;;;;3.58;1.67;;;32.60;29.90;;;;;;6165027;28;20054;-69
2022/06/14 11:13:06;;;;;;;6.15;2.00;;;33.70;29.30;;;;;;6140350;28;20666;-70
2022/06/14 11:16:32;;;;;;;3.60;1.60;;;34.80;27.70;;;;;;6157069;28;20129;-71
2022/06/14 11:19:57;;;;;;;5.85;1.38;;;35.60;26.90;;;;;;6145589;28;20031;-70
2022/06/14 11:23:33;;;;;;;3.85;1.48;;;36.30;26.30;;;;;;6139197;28;20155;-70
2022/06/14 11:26:48;;;;;;;4.70;1.70;;;37.00;25.70;;;;;;6088135;29;20191;-71
2022/06/14 11:29:54;;;;;;;3.47;1.55;;;37.70;25.80;;;;;;6096448;29;20099;-72
2022/06/14 11:33:01;;;;;;;5.57;1.60;;;38.20;24.90;;;;;;6090479;29;20032;-71
2022/06/14 11:36:23;;;;;;;8.60;2.05;;;38.60;24.50;;;;;;6096775;29;20446;-71
2022/06/14 11:39:36;;;;;;;3.08;1.52;;;39.00;24.10;;;;;;6076760;29;20076;-70
2022/06/14 11:43:11;;;;;;;4.63;1.80;;;39.30;23.90;;;;;;6111960;29;20039;-71
2022/06/14 11:46:49;;;;;;;8.68;1.63;;;39.50;23.60;;;;;;6061876;29;20097;-71
2022/06/14 11:50:13;;;;;;;7.25;1.65;;;39.70;23.20;;;;;;6048021;29;20036;-71
2022/06/14 11:53:41;;;;;;;7.20;1.77;;;39.70;23.30;;;;;;6045604;29;20033;-71
2022/06/14 11:56:51;;;;;;;3.05;1.70;;;39.90;23.30;;;;;;6056528;29;20518;-70
2022/06/14 12:00:11;;;;;;;6.70;1.92;;;40.20;23.20;;;;;;6085501;29;20107;-70
2022/06/14 12:03:36;;;;;;;2.08;1.55;;;40.50;23.00;;;;;;6108208;29;20126;-70
2022/06/14 12:06:58;;;;;;;5.15;1.85;;;40.60;22.70;;;;;;6123451;29;20211;-71
2022/06/14 12:10:31;;;;;;;1.92;1.40;;;40.70;22.70;;;;;;6105296;29;20094;-71
2022/06/14 12:13:53;;;;;;;8.35;1.60;;;40.40;22.80;;;;;;6105774;29;20048;-71
2022/06/14 12:17:10;;;;;;;4.80;1.50;;;40.40;22.80;;;;;;6128144;29;20167;-71
2022/06/14 12:20:18;;;;;;;4.05;2.00;;;40.50;22.90;;;;;;6123501;28;20024;-71
2022/06/14 12:23:47;;;;;;;1.98;1.30;;;40.70;22.90;;;;;;6191746;28;20022;-72
2022/06/14 12:26:59;;;;;;;5.45;1.48;;;41.20;22.60;;;;;;6176797;28;20041;-71
2022/06/14 12:30:01;;;;;;;4.63;1.20;;;41.50;22.10;;;;;;6165764;28;20041;-72
2022/06/14 12:33:16;;;;;;;3.65;1.50;;;41.80;22.00;;;;;;6179533;28;20032;-72
2022/06/14 12:36:23;;;;;;;7.95;1.60;;;42.00;21.80;;;;;;6177536;28;20030;-72
2022/06/14 12:39:39;;;;;;;12.35;1.33;;;42.00;21.80;;;;;;6195580;28;20030;-72
2022/06/14 12:42:50;;;;;;;3.42;1.50;;;42.10;21.70;;;;;;6193679;28;20391;-72
2022/06/14 12:46:17;;;;;;;5.72;1.42;;;42.20;21.20;;;;;;6177420;28;20038;-72
2022/06/14 12:49:27;;;;;;;7.80;1.40;;;42.00;21.40;;;;;;6166963;28;20053;-71
2022/06/14 12:52:34;;;;;;;7.20;1.58;;;42.10;21.40;;;;;;6178669;28;20022;-71
2022/06/14 12:55:43;;;;;;;2.05;1.30;;;42.20;21.20;;;;;;6193025;28;20081;-71
2022/06/14 12:59:23;;;;;;;3.03;1.55;;;42.40;21.10;;;;;;6175242;28;20035;-71
2022/06/14 13:02:35;;;;;;;2.80;1.13;;;42.70;20.90;;;;;;6190688;28;20031;-71
2022/06/14 13:05:50;;;;;;;3.30;1.70;;;43.00;20.60;;;;;;6192318;28;20026;-71
2022/06/14 13:09:05;;;;;;;7.45;1.70;;;43.50;20.10;;;;;;6195111;28;20021;-71
2022/06/14 13:12:24;;;;;;;5.20;1.40;;;43.80;19.90;;;;;;6187697;28;20441;-71
2022/06/14 13:15:57;;;;;;;3.53;1.40;;;44.10;19.70;;;;;;6173500;28;20046;-71
2022/06/14 13:19:18;;;;;;;6.38;1.42;;;44.50;19.50;;;;;;6176982;28;20117;-71
2022/06/14 13:22:28;;;;;;;10.13;1.45;;;45.00;19.20;;;;;;6192175;28;20132;-72
2022/06/14 13:26:01;;;;;;;4.43;1.92;;;45.30;18.90;;;;;;6182110;28;20500;-71
2022/06/14 13:29:16;;;;;;;6.22;1.73;;;45.90;18.60;;;;;;6134456;29;20032;-71
2022/06/14 13:32:37;;;;;;;2.70;1.23;;;46.70;18.10;;;;;;6128338;29;20087;-71
2022/06/14 13:36:05;;;;;;;3.05;1.40;;;47.30;17.70;;;;;;6121419;29;20039;-71
2022/06/14 13:39:15;;;;;;;6.60;1.38;;;47.00;17.60;;;;;;6131630;29;20043;-71
2022/06/14 13:42:35;;;;;;;4.30;1.50;;;46.40;17.70;;;;;;6116254;29;20035;-71
2022/06/14 13:45:41;;;;;;;2.42;1.40;;;45.80;18.00;;;;;;6127591;29;20032;-71
2022/06/14 13:48:54;;;;;;;2.10;1.35;;;45.50;18.30;;;;;;6124966;29;20114;-71
2022/06/14 13:52:16;;;;;;;4.25;1.30;;;45.10;18.50;;;;;;6117742;29;20771;-71
2022/06/14 13:55:28;;;;;;;1.88;1.45;;;45.00;18.60;;;;;;6121687;29;20345;-72
2022/06/14 13:58:49;;;;;;;2.55;1.40;;;44.90;18.70;;;;;;6128132;29;20050;-71
2022/06/14 14:02:12;;;;;;;3.55;1.50;;;45.20;18.40;;;;;;6126595;29;20028;-72
2022/06/14 14:05:28;;;;;;;3.85;1.20;;;46.20;17.90;;;;;;6155532;28;20037;-72
2022/06/14 14:09:12;;;;;;;2.05;1.30;;;47.10;17.10;;;;;;6176812;28;20100;-71
2022/06/14 14:12:26;;;;;;;3.80;1.20;;;47.70;16.70;;;;;;6171607;28;20034;-71
2022/06/14 14:15:45;;;;;;;1.73;1.25;;;48.40;16.20;;;;;;6201233;28;20034;-71
2022/06/14 14:18:55;;;;;;;3.92;1.27;;;48.90;15.90;;;;;;6188152;28;20042;-72
2022/06/14 14:22:24;;;;;;;4.90;1.50;;;49.10;15.40;;;;;;6177951;28;20054;-71
2022/06/14 14:25:39;;;;;;;7.60;1.30;;;49.10;15.40;;;;;;6195279;28;20034;-71
2022/06/14 14:28:49;;;;;;;2.85;1.20;;;49.40;15.30;;;;;;6182394;28;20114;-71
2022/06/14 14:31:57;;;;;;;3.55;1.25;;;49.50;15.10;;;;;;6201279;28;20026;-71
2022/06/14 14:35:04;;;;;;;5.93;1.60;;;49.70;14.90;;;;;;6199240;28;20376;-72
2022/06/14 14:38:20;;;;;;;6.38;1.90;;;49.60;15.00;;;;;;6192512;28;20026;-71
2022/06/14 14:41:44;;;;;;;2.90;1.60;;;50.00;15.30;;;;;;6201054;28;20029;-71
2022/06/14 14:45:22;;;;;;;6.32;1.75;;;50.30;15.10;;;;;;6182111;28;20045;-72
2022/06/14 14:48:42;;;;;;;3.65;1.73;;;50.80;14.90;;;;;;6179626;28;20056;-71
2022/06/14 14:52:01;;;;;;;7.22;1.50;;;51.20;15.00;;;;;;6195741;28;20576;-71
2022/06/14 14:55:07;;;;;;;4.55;1.65;;;51.20;14.80;;;;;;6175187;28;20030;-71
2022/06/14 14:58:29;;;;;;;5.18;1.40;;;51.00;14.50;;;;;;6192156;28;20018;-71
2022/06/14 15:08:36;;;;;;;2.28;1.25;;;51.80;14.00;;;;;;6109076;29;20031;-72
2022/06/14 15:11:51;;;;;;;1.20;1.10;;;51.60;13.80;;;;;;6127784;29;20142;-72
2022/06/14 15:15:14;;;;;;;8.75;2.40;;;51.30;13.70;;;;;;6118065;29;20478;-71
2022/06/14 15:21:47;;;;;;;4.03;1.40;;;51.10;13.90;;;;;;6124791;29;20099;-72
2022/06/14 15:24:53;;;;;;;3.38;1.30;;;51.00;13.90;;;;;;6129424;29;20127;-72
2022/06/14 15:28:09;;;;;;;4.50;1.40;;;50.80;13.90;;;;;;6093582;29;20087;-72
2022/06/14 15:31:45;;;;;;;2.00;1.30;;;50.70;13.90;;;;;;6128215;29;20126;-72
2022/06/14 15:34:50;;;;;;;2.00;1.45;;;50.40;13.90;;;;;;6133528;29;20067;-71
2022/06/14 15:38:14;;;;;;;7.60;2.15;;;50.10;14.10;;;;;;6123332;29;20447;-71
2022/06/14 15:41:28;;;;;;;4.50;1.38;;;49.60;14.30;;;;;;6045456;29;20070;-71
2022/06/14 15:44:31;;;;;;;4.88;1.70;;;48.80;14.50;;;;;;6070478;29;20033;-72
2022/06/14 15:47:38;;;;;;;4.07;1.30;;;48.30;14.90;;;;;;6094275;29;20035;-71
2022/06/14 15:50:41;;;;;;;1.80;1.48;;;48.30;15.00;;;;;;6089343;29;20044;-72
2022/06/14 15:53:42;;;;;;;2.80;1.30;;;48.40;15.00;;;;;;6100438;29;20087;-71
2022/06/14 15:56:54;;;;;;;2.92;1.45;;;48.70;14.80;;;;;;6096747;29;20439;-72
2022/06/14 16:00:04;;;;;;;2.50;1.42;;;48.80;14.70;;;;;;6096872;29;20046;-72
2022/06/14 16:03:16;;;;;;;2.53;1.20;;;49.10;14.70;;;;;;6104062;29;20180;-72
2022/06/14 16:06:41;;;;;;;2.80;1.40;;;49.30;14.60;;;;;;6101570;29;20342;-72
2022/06/14 16:09:52;;;;;;;3.60;1.50;;;49.50;14.40;;;;;;6110282;29;20095;-72
2022/06/14 16:13:25;;;;;;;3.67;1.30;;;49.80;14.30;;;;;;6089479;29;20051;-72
2022/06/14 16:16:38;;;;;;;3.15;1.23;;;49.90;14.20;;;;;;6098291;29;20044;-73
2022/06/14 16:19:53;;;;;;;3.83;1.50;;;50.00;14.10;;;;;;6185789;28;20072;-71
2022/06/14 16:23:01;;;;;;;3.65;1.58;;;49.90;14.10;;;;;;6196797;28;20042;-71
2022/06/14 16:26:44;;;;;;;2.67;1.25;;;49.50;14.10;;;;;;6182207;28;20025;-71
2022/06/14 16:29:57;;;;;;;4.93;1.60;;;49.30;14.10;;;;;;6184311;28;20026;-71
2022/06/14 16:33:23;;;;;;;9.65;1.85;;;48.90;14.20;;;;;;6200482;28;20029;-71
2022/06/14 16:36:39;;;;;;;4.43;1.48;;;48.70;14.30;;;;;;6198035;28;20026;-72
2022/06/14 16:39:45;;;;;;;3.33;1.42;;;48.60;14.40;;;;;;6188622;28;20026;-72
2022/06/14 16:42:55;;;;;;;2.40;1.33;;;48.40;14.70;;;;;;6169104;28;20426;-72
2022/06/14 16:46:13;;;;;;;1.42;1.30;;;48.40;14.70;;;;;;6199888;28;20054;-72
2022/06/14 16:49:28;;;;;;;4.75;1.27;;;48.40;14.90;;;;;;6199751;28;20362;-72
2022/06/14 16:53:02;;;;;;;3.00;1.23;;;48.20;15.00;;;;;;6198452;28;20085;-71
2022/06/14 16:56:09;;;;;;;2.08;1.40;;;47.90;15.00;;;;;;6178550;28;20034;-71
2022/06/14 16:59:45;;;;;;;3.08;1.58;;;47.40;15.20;;;;;;6186338;28;20117;-72
2022/06/14 17:03:09;;;;;;;4.07;1.20;;;46.50;15.50;;;;;;6202193;28;20129;-72
2022/06/14 17:06:10;;;;;;;2.70;1.45;;;45.10;16.30;;;;;;6180575;28;20458;-72
2022/06/14 17:09:37;;;;;;;13.30;1.65;;;43.80;17.00;;;;;;6200530;28;20026;-72
2022/06/14 17:13:09;;;;;;;2.90;1.30;;;42.70;17.60;;;;;;6204228;28;20046;-72
2022/06/14 17:16:28;;;;;;;2.78;1.35;;;41.60;18.30;;;;;;6191280;28;20284;-72
2022/06/14 17:19:50;;;;;;;2.78;1.35;;;40.50;19.00;;;;;;6191973;28;20042;-72
2022/06/14 17:23:23;;;;;;;2.05;1.20;;;39.80;19.60;;;;;;6202112;28;20026;-71
2022/06/14 17:33:13;;;;;;;6.15;1.50;;;38.40;21.00;;;;;;6203676;28;20440;-72